createdAt,value
2022-09-03T00:02:22.020Z,75.25
2022-09-03T00:05:00.167Z,75.59
2022-09-03T00:07:35.779Z,75.68
2022-09-03T00:10:30.380Z,76.22
2022-09-03T00:13:05.258Z,76.36
2022-09-03T00:15:37.068Z,76.90
2022-09-03T00:18:20.852Z,77.80
2022-09-03T00:21:08.860Z,78.51
2022-09-03T00:23:40.730Z,78.99
2022-09-03T00:26:11.520Z,79.12
2022-09-03T00:28:59.970Z,80.25
2022-09-03T00:31:54.963Z,82.29
2022-09-03T00:34:45.010Z,83.28
2022-09-03T00:37:14.477Z,85.26
2022-09-03T00:39:43.575Z,86.09
2022-09-03T00:42:21.829Z,86.91
2022-09-03T00:45:20.207Z,87.48
2022-09-03T00:48:28.095Z,88.54
2022-09-03T00:51:18.417Z,88.94
2022-09-03T00:54:09.569Z,88.91
2022-09-03T00:57:18.208Z,89.45
2022-09-03T01:00:10.450Z,89.09
2022-09-03T01:02:42.459Z,88.29
2022-09-03T01:05:37.426Z,87.45
2022-09-03T01:08:32.507Z,86.28
2022-09-03T01:14:30.740Z,85.61
2022-09-03T01:16:58.546Z,85.40
2022-09-03T01:19:29.151Z,85.20
2022-09-03T01:22:21.232Z,84.95
2022-09-03T01:24:49.950Z,84.98
2022-09-03T01:27:37.266Z,85.33
2022-09-03T01:30:26.071Z,85.04
2022-09-03T01:33:27.209Z,85.42
2022-09-03T01:36:02.012Z,85.09
2022-09-03T01:38:56.954Z,84.99
2022-09-03T01:42:01.492Z,85.23
2022-09-03T01:44:45.406Z,85.02
2022-09-03T01:47:24.811Z,84.97
2022-09-03T01:49:59.722Z,84.81
2022-09-03T01:52:48.104Z,84.91
2022-09-03T01:55:40.884Z,85.08
2022-09-03T01:58:30.812Z,85.07
2022-09-03T02:01:04.368Z,85.46
2022-09-03T02:03:40.749Z,85.57
2022-09-03T02:06:09.246Z,85.46
2022-09-03T02:08:42.243Z,85.32
2022-09-03T02:11:12.202Z,85.44
2022-09-03T02:14:10.635Z,85.27
2022-09-03T02:16:38.027Z,85.76
2022-09-03T02:19:07.660Z,86.27
2022-09-03T02:21:36.110Z,87.08
2022-09-03T02:24:06.619Z,87.74
2022-09-03T02:26:33.716Z,87.80
2022-09-03T02:29:01.868Z,88.16
2022-09-03T02:31:29.103Z,88.33
2022-09-03T02:33:57.490Z,88.45
2022-09-03T02:36:32.088Z,88.98
2022-09-03T02:39:16.459Z,89.16
2022-09-03T02:41:45.397Z,89.45
2022-09-03T02:44:28.476Z,89.76
2022-09-03T02:47:11.713Z,89.27
2022-09-03T02:49:40.846Z,88.75
2022-09-03T02:52:13.638Z,88.60
2022-09-03T02:54:48.817Z,89.08
2022-09-03T02:57:16.808Z,89.11
2022-09-03T03:00:04.965Z,89.30
2022-09-03T03:02:34.896Z,88.74
2022-09-03T03:05:04.974Z,88.79
2022-09-03T03:07:34.711Z,88.88
2022-09-03T03:10:01.665Z,89.29
2022-09-03T03:12:35.654Z,90.40
2022-09-03T03:15:07.945Z,91.69
2022-09-03T03:17:43.869Z,92.27
2022-09-03T03:20:11.879Z,92.23
2022-09-03T03:22:39.750Z,92.45
2022-09-03T03:25:06.990Z,92.62
2022-09-03T03:27:42.600Z,92.73
2022-09-03T03:30:11.655Z,92.94
2022-09-03T03:32:46.450Z,92.83
2022-09-03T03:35:14.037Z,93.73
2022-09-03T03:37:41.057Z,95.50
2022-09-03T03:40:09.226Z,97.79
2022-09-03T03:42:46.196Z,97.79
2022-09-03T03:45:21.686Z,97.31
2022-09-03T03:48:12.835Z,96.82
2022-09-03T03:50:39.699Z,95.85
2022-09-03T03:53:06.591Z,95.22
2022-09-03T03:55:42.362Z,94.93
2022-09-03T03:58:11.671Z,93.69
2022-09-03T04:00:50.779Z,92.55
2022-09-03T04:03:20.451Z,91.71
2022-09-03T04:05:57.128Z,91.30
2022-09-03T04:08:26.179Z,90.94
2022-09-03T04:10:56.073Z,90.73
2022-09-03T04:13:23.048Z,90.59
2022-09-03T04:15:51.797Z,90.35
2022-09-03T04:18:24.898Z,90.56
2022-09-03T04:20:53.040Z,90.15
2022-09-03T04:23:23.979Z,90.34
2022-09-03T04:26:03.290Z,90.92
2022-09-03T04:28:38.080Z,90.89
2022-09-03T04:31:06.355Z,90.79
2022-09-03T04:33:40.424Z,90.53
2022-09-03T04:36:14.775Z,90.13
2022-09-03T04:38:42.773Z,89.90
2022-09-03T04:41:26.299Z,89.76
2022-09-03T04:43:56.104Z,90.11
2022-09-03T04:46:26.336Z,89.80
2022-09-03T04:48:54.845Z,89.29
2022-09-03T04:51:24.559Z,88.88
2022-09-03T04:53:57.489Z,88.70
2022-09-03T04:56:27.916Z,88.57
2022-09-03T04:59:17.357Z,88.17
2022-09-03T05:01:46.297Z,88.58
2022-09-03T05:04:13.598Z,89.19
2022-09-03T05:06:50.628Z,89.88
2022-09-03T05:09:17.564Z,90.81
2022-09-03T05:11:48.425Z,91.23
2022-09-03T05:14:15.383Z,92.36
2022-09-03T05:16:52.752Z,92.67
2022-09-03T05:19:20.307Z,92.77
2022-09-03T05:21:47.325Z,93.86
2022-09-03T05:24:16.414Z,94.27
2022-09-03T05:26:52.196Z,93.82
2022-09-03T05:29:20.476Z,94.04
2022-09-03T05:31:51.331Z,94.25
2022-09-03T05:34:18.592Z,93.67
2022-09-03T05:36:53.341Z,92.87
2022-09-03T05:39:28.662Z,91.60
2022-09-03T05:41:57.644Z,90.90
2022-09-03T05:44:24.802Z,89.57
2022-09-03T05:46:53.023Z,87.82
2022-09-03T05:49:28.121Z,85.15
2022-09-03T05:51:55.119Z,83.78
2022-09-03T05:54:22.021Z,82.84
2022-09-03T05:56:50.207Z,81.97
2022-09-03T05:59:17.476Z,81.15
2022-09-03T06:01:51.004Z,80.49
2022-09-03T06:04:19.276Z,80.16
2022-09-03T06:06:51.181Z,80.05
2022-09-03T06:09:23.228Z,79.03
2022-09-03T06:11:52.560Z,77.93
2022-09-03T06:14:27.142Z,78.16
2022-09-03T06:16:56.199Z,78.04
2022-09-03T06:19:25.037Z,78.36
2022-09-03T06:21:52.024Z,77.17
2022-09-03T06:24:21.889Z,77.03
2022-09-03T06:26:58.667Z,76.19
2022-09-03T06:29:27.984Z,77.35
2022-09-03T06:31:55.310Z,77.44
2022-09-03T06:34:32.198Z,75.35
2022-09-03T06:37:05.150Z,75.00
2022-09-03T06:39:34.191Z,73.89
2022-09-03T06:42:01.203Z,73.90
2022-09-03T06:44:29.156Z,73.97
2022-09-03T06:46:56.010Z,74.20
2022-09-03T06:49:29.022Z,73.30
2022-09-03T06:51:56.184Z,72.55
2022-09-03T06:54:39.927Z,73.78
2022-09-03T06:57:19.110Z,72.94
2022-09-03T06:59:46.327Z,71.90
2022-09-03T07:02:14.235Z,72.29
2022-09-03T07:04:41.365Z,71.61
2022-09-03T07:07:13.545Z,71.15
2022-09-03T07:09:43.983Z,71.62
2022-09-03T07:12:16.147Z,71.72
2022-09-03T07:14:44.089Z,72.72
2022-09-03T07:17:12.123Z,72.42
2022-09-03T07:19:40.264Z,70.57
2022-09-03T07:22:08.283Z,69.40
2022-09-03T07:24:37.983Z,69.44
2022-09-03T07:27:09.838Z,69.23
2022-09-03T07:29:42.450Z,69.19
2022-09-03T07:32:09.686Z,66.73
2022-09-03T07:34:40.673Z,66.02
2022-09-03T07:37:08.030Z,66.91
2022-09-03T07:39:34.994Z,69.61
2022-09-03T07:42:11.341Z,69.85
2022-09-03T07:44:39.234Z,68.08
2022-09-03T07:47:07.272Z,68.09
2022-09-03T07:49:35.745Z,67.49
2022-09-03T07:52:03.353Z,66.55
2022-09-03T07:54:30.487Z,66.00
2022-09-03T07:56:57.580Z,64.63
2022-09-03T07:59:31.881Z,65.07
2022-09-03T08:02:02.887Z,65.81
2022-09-03T08:04:30.733Z,65.56
2022-09-03T08:06:58.163Z,64.75
2022-09-03T08:09:27.100Z,66.40
2022-09-03T08:11:57.006Z,66.85
2022-09-03T08:14:23.923Z,66.35
2022-09-03T08:16:50.914Z,65.28
2022-09-03T08:19:19.126Z,65.37
2022-09-03T08:21:52.011Z,65.10
2022-09-03T08:24:26.987Z,65.78
2022-09-03T08:26:55.944Z,65.10
2022-09-03T08:29:22.821Z,64.61
2022-09-03T08:31:51.459Z,63.58
2022-09-03T08:34:18.569Z,63.74
2022-09-03T08:36:47.481Z,63.42
2022-09-03T08:39:14.886Z,62.45
2022-09-03T08:41:49.081Z,62.90
2022-09-03T08:44:15.859Z,62.21
2022-09-03T08:46:58.734Z,63.10
2022-09-03T08:49:47.312Z,62.46
2022-09-03T08:52:37.769Z,60.92
2022-09-03T08:55:14.170Z,60.46
2022-09-03T08:57:45.518Z,58.45
2022-09-03T09:00:12.584Z,59.22
2022-09-03T09:02:44.707Z,58.03
2022-09-03T09:05:19.580Z,57.48
2022-09-03T09:07:56.213Z,58.79
2022-09-03T09:10:40.353Z,57.07
2022-09-03T09:13:24.725Z,56.91
2022-09-03T09:16:10.538Z,57.29
2022-09-03T09:18:43.487Z,56.67
2022-09-03T09:21:21.353Z,56.14
2022-09-03T09:23:51.174Z,54.27
2022-09-03T09:26:23.167Z,54.49
2022-09-03T09:29:03.017Z,54.91
2022-09-03T09:31:39.697Z,54.76
2022-09-03T09:34:07.969Z,53.87
2022-09-03T09:36:45.791Z,52.38
2022-09-03T09:39:25.095Z,51.39
2022-09-03T09:42:12.255Z,51.58
2022-09-03T09:44:40.342Z,51.44
2022-09-03T09:47:25.253Z,51.18
2022-09-03T09:50:01.524Z,52.45
2022-09-03T09:52:30.606Z,51.36
2022-09-03T09:55:09.551Z,50.53
2022-09-03T09:57:37.557Z,49.08
2022-09-03T10:00:13.049Z,50.02
2022-09-03T10:03:00.279Z,49.71
2022-09-03T10:05:28.499Z,49.81
2022-09-03T10:07:56.349Z,48.92
2022-09-03T10:10:23.776Z,47.47
2022-09-03T10:12:59.767Z,49.08
2022-09-03T10:15:29.469Z,49.80
2022-09-03T10:18:32.105Z,49.52
2022-09-03T10:21:06.539Z,48.98
2022-09-03T10:23:44.586Z,49.03
2022-09-03T10:26:22.171Z,49.46
2022-09-03T10:28:56.028Z,49.64
2022-09-03T10:31:36.993Z,48.26
2022-09-03T10:34:19.047Z,49.36
2022-09-03T10:37:01.284Z,48.65
2022-09-03T10:39:52.152Z,49.75
2022-09-03T10:42:27.301Z,50.67
2022-09-03T10:45:10.025Z,49.71
2022-09-03T10:47:42.855Z,50.27
2022-09-03T10:50:29.288Z,49.98
2022-09-03T10:53:09.650Z,50.66
2022-09-03T10:55:58.565Z,50.66
2022-09-03T10:58:25.570Z,50.78
2022-09-03T11:01:02.240Z,50.43
2022-09-03T11:03:46.090Z,51.36
2022-09-03T11:06:22.840Z,50.07
2022-09-03T11:09:03.234Z,49.13
2022-09-03T11:11:53.534Z,49.43
2022-09-03T11:14:33.213Z,49.95
2022-09-03T11:17:12.415Z,51.26
2022-09-03T11:19:49.655Z,51.41
2022-09-03T11:22:20.762Z,50.01
2022-09-03T11:24:55.309Z,50.10
2022-09-03T11:27:22.393Z,51.12
2022-09-03T11:30:02.295Z,50.64
2022-09-03T11:32:55.768Z,52.86
2022-09-03T11:35:26.923Z,52.79
2022-09-03T11:38:00.571Z,52.89
2022-09-03T11:40:33.227Z,52.41
2022-09-03T11:43:16.173Z,53.36
2022-09-03T11:45:43.574Z,52.66
2022-09-03T11:48:31.430Z,53.24
2022-09-03T11:51:04.794Z,54.06
2022-09-03T11:53:36.618Z,53.44
2022-09-03T11:56:06.591Z,53.67
2022-09-03T11:58:35.270Z,53.22
2022-09-03T12:01:21.015Z,54.06
2022-09-03T12:03:47.944Z,54.33
2022-09-03T12:06:21.230Z,54.92
2022-09-03T12:09:14.067Z,54.37
2022-09-03T12:11:55.387Z,53.82
2022-09-03T12:14:22.289Z,53.55
2022-09-03T12:16:53.577Z,54.58
2022-09-03T12:19:37.087Z,54.58
2022-09-03T12:22:17.168Z,54.88
2022-09-03T12:24:46.484Z,54.94
2022-09-03T12:27:25.120Z,55.11
2022-09-03T12:30:06.082Z,55.65
2022-09-03T12:32:37.489Z,54.76
2022-09-03T12:38:06.931Z,56.26
2022-09-03T12:43:45.099Z,56.66
2022-09-03T12:46:16.174Z,57.14
2022-09-03T12:52:04.597Z,56.94
2022-09-03T12:54:33.207Z,57.53
2022-09-03T12:57:01.628Z,56.87
2022-09-03T12:59:32.097Z,57.49
2022-09-03T13:02:02.971Z,56.85
2022-09-03T13:04:32.876Z,56.38
2022-09-03T13:07:22.022Z,56.03
2022-09-03T13:09:52.384Z,56.50
2022-09-03T13:12:30.198Z,54.69
2022-09-03T13:14:58.404Z,54.88
2022-09-03T13:17:51.132Z,53.96
2022-09-03T13:20:39.793Z,54.23
2022-09-03T13:23:06.642Z,55.65
2022-09-03T13:25:53.391Z,55.03
2022-09-03T13:28:40.944Z,55.15
2022-09-03T13:31:22.598Z,55.09
2022-09-03T13:33:57.152Z,55.75
2022-09-03T13:36:32.242Z,55.26
2022-09-03T13:39:06.433Z,56.31
2022-09-03T13:41:44.350Z,55.75
2022-09-03T13:44:18.818Z,54.69
2022-09-03T13:46:53.997Z,55.93
2022-09-03T13:49:59.922Z,54.81
2022-09-03T13:52:50.665Z,53.90
2022-09-03T13:55:38.381Z,53.45
2022-09-03T13:58:27.711Z,54.23
2022-09-03T14:00:54.793Z,54.22
2022-09-03T14:03:48.566Z,55.24
2022-09-03T14:06:20.091Z,56.48
2022-09-03T14:09:08.847Z,55.65
2022-09-03T14:11:58.059Z,57.58
2022-09-03T14:14:35.264Z,57.30
2022-09-03T14:17:05.143Z,57.49
2022-09-03T14:19:50.961Z,57.68
2022-09-03T14:22:21.503Z,57.98
2022-09-03T14:25:01.503Z,57.79
2022-09-03T14:27:30.272Z,56.55
2022-09-03T14:30:11.474Z,57.03
2022-09-03T14:32:42.501Z,56.71
2022-09-03T14:35:17.410Z,56.90
2022-09-03T14:37:59.337Z,56.98
2022-09-03T14:40:36.205Z,57.09
2022-09-03T14:43:05.092Z,56.17
2022-09-03T14:45:51.200Z,56.26
2022-09-03T14:48:37.791Z,57.35
2022-09-03T14:51:24.514Z,56.73
2022-09-03T14:54:13.366Z,57.20
2022-09-03T14:56:49.534Z,57.37
2022-09-03T14:59:25.706Z,58.86
2022-09-03T15:02:08.620Z,59.04
2022-09-03T15:04:44.602Z,59.47
2022-09-03T15:07:31.249Z,60.07
2022-09-03T15:10:13.188Z,58.58
2022-09-03T15:12:52.165Z,59.95
2022-09-03T15:15:19.722Z,60.08
2022-09-03T15:18:11.472Z,60.11
2022-09-03T15:20:50.859Z,60.52
2022-09-03T15:23:25.007Z,59.77
2022-09-03T15:26:11.703Z,60.59
2022-09-03T15:28:47.621Z,60.92
2022-09-03T15:31:22.185Z,60.35
2022-09-03T15:33:54.287Z,59.46
2022-09-03T15:36:26.734Z,59.56
2022-09-03T15:38:57.527Z,60.23
2022-09-03T15:41:34.248Z,59.26
2022-09-03T15:44:02.271Z,59.30
2022-09-03T15:46:34.767Z,59.57
2022-09-03T15:49:20.300Z,59.83
2022-09-03T15:51:59.700Z,59.10
2022-09-03T15:55:02.696Z,59.83
2022-09-03T15:57:36.911Z,59.30
2022-09-03T16:00:16.647Z,58.88
2022-09-03T16:02:49.552Z,58.67
2022-09-03T16:05:19.681Z,58.42
2022-09-03T16:07:56.563Z,58.80
2022-09-03T16:10:35.646Z,57.38
2022-09-03T16:13:05.626Z,55.72
2022-09-03T16:15:39.501Z,55.32
2022-09-03T16:18:12.145Z,53.28
2022-09-03T16:20:42.794Z,51.11
2022-09-03T16:23:19.033Z,51.43
2022-09-03T16:25:48.146Z,51.18
2022-09-03T16:28:21.366Z,50.66
2022-09-03T16:30:50.946Z,50.61
2022-09-03T16:33:19.439Z,50.11
2022-09-03T16:36:15.576Z,50.35
2022-09-03T16:38:50.076Z,50.58
2022-09-03T16:41:19.553Z,50.68
2022-09-03T16:44:04.448Z,50.92
2022-09-03T16:46:41.290Z,51.68
2022-09-03T16:49:18.616Z,52.46
2022-09-03T16:51:46.464Z,52.84
2022-09-03T16:54:16.352Z,53.38
2022-09-03T16:56:43.489Z,54.17
2022-09-03T16:59:25.780Z,55.73
2022-09-03T17:01:55.521Z,56.41
2022-09-03T17:04:38.776Z,57.54
2022-09-03T17:07:12.427Z,58.59
2022-09-03T17:09:47.341Z,59.74
2022-09-03T17:12:14.486Z,60.63
2022-09-03T17:15:25.330Z,61.69
2022-09-03T17:18:10.778Z,62.58
2022-09-03T17:20:49.564Z,63.26
2022-09-03T17:23:32.395Z,65.85
2022-09-03T17:26:21.081Z,66.81
2022-09-03T17:29:07.248Z,67.64
2022-09-03T17:31:49.911Z,67.89
2022-09-03T17:34:38.886Z,68.55
2022-09-03T17:37:28.888Z,69.17
2022-09-03T17:39:59.575Z,69.67
2022-09-03T17:42:26.501Z,70.63
2022-09-03T17:45:03.198Z,70.97
2022-09-03T17:47:55.209Z,72.31
2022-09-03T17:50:25.594Z,73.01
2022-09-03T17:53:16.497Z,73.82
2022-09-03T17:55:53.667Z,75.29
2022-09-03T17:58:28.415Z,76.05
2022-09-03T18:01:04.566Z,76.17
2022-09-03T18:03:40.653Z,76.74
2022-09-03T18:06:19.374Z,76.81
2022-09-03T18:08:57.227Z,77.65
2022-09-03T18:11:25.253Z,78.88
2022-09-03T18:13:52.153Z,79.59
2022-09-03T18:16:22.452Z,79.51
2022-09-03T18:18:52.392Z,80.27
2022-09-03T18:21:56.853Z,80.45
2022-09-03T18:24:52.220Z,81.79
2022-09-03T18:27:41.452Z,82.45
2022-09-03T18:30:35.333Z,83.38
2022-09-03T18:33:22.071Z,83.54
2022-09-03T18:36:07.745Z,83.55
2022-09-03T18:38:54.524Z,84.55
2022-09-03T18:41:39.894Z,84.50
2022-09-03T18:44:37.446Z,85.17
2022-09-03T18:48:11.834Z,85.67
2022-09-03T18:51:24.975Z,86.63
2022-09-03T18:54:25.057Z,86.18
2022-09-03T18:57:12.938Z,86.49
2022-09-03T19:00:01.694Z,87.67
2022-09-03T19:03:10.780Z,89.44
2022-09-03T19:06:11.905Z,88.93
2022-09-03T19:09:02.615Z,88.64
2022-09-03T19:12:06.714Z,87.85
2022-09-03T19:14:58.443Z,88.12
2022-09-03T19:17:44.436Z,88.23
2022-09-03T19:20:46.576Z,88.29
2022-09-03T19:23:38.933Z,88.66
2022-09-03T19:26:33.149Z,88.83
2022-09-03T19:29:31.253Z,88.60
2022-09-03T19:32:23.935Z,88.30
2022-09-03T19:35:29.934Z,88.06
2022-09-03T19:38:29.760Z,87.70
2022-09-03T19:44:46.595Z,88.19
2022-09-03T19:47:40.111Z,88.32
2022-09-03T19:50:43.841Z,88.52
2022-09-03T19:53:36.576Z,88.80
2022-09-03T19:56:28.912Z,88.86
2022-09-03T19:59:15.776Z,88.97
2022-09-03T20:02:02.480Z,89.14
2022-09-03T20:04:56.489Z,89.71
2022-09-03T20:07:42.598Z,90.24
2022-09-03T20:10:23.576Z,90.28
2022-09-03T20:13:06.487Z,90.03
2022-09-03T20:19:13.609Z,89.66
2022-09-03T20:21:57.877Z,89.69
2022-09-03T20:24:47.302Z,89.65
2022-09-03T20:27:32.170Z,89.90
2022-09-03T20:30:02.622Z,89.91
2022-09-03T20:32:38.332Z,89.68
2022-09-03T20:35:11.434Z,90.52
2022-09-03T20:37:45.427Z,91.35
2022-09-03T20:40:16.846Z,91.65
2022-09-03T20:43:03.572Z,91.96
2022-09-03T20:45:56.459Z,92.56
2022-09-03T20:48:45.921Z,93.46
2022-09-03T20:51:23.851Z,94.46
2022-09-03T20:53:50.668Z,94.75
2022-09-03T20:56:17.454Z,95.86
2022-09-03T20:59:06.406Z,96.58
2022-09-03T21:01:33.942Z,95.56
2022-09-03T21:04:04.526Z,94.65
2022-09-03T21:06:50.468Z,93.89
2022-09-03T21:09:18.260Z,93.39
2022-09-03T21:12:05.125Z,93.30
2022-09-03T21:14:33.725Z,94.03
2022-09-03T21:17:20.226Z,93.88
2022-09-03T21:19:59.295Z,93.70
2022-09-03T21:22:34.453Z,92.88
2022-09-03T21:25:36.734Z,93.18
2022-09-03T21:28:24.558Z,94.64
2022-09-03T21:31:27.000Z,95.21
2022-09-03T21:34:08.610Z,96.40
2022-09-03T21:36:35.866Z,97.76
2022-09-03T21:39:24.507Z,98.63
2022-09-03T21:41:55.650Z,98.86
2022-09-03T21:45:04.495Z,98.36
2022-09-03T21:47:39.668Z,96.56
2022-09-03T21:50:21.608Z,95.83
2022-09-03T21:53:10.259Z,95.68
2022-09-03T21:55:56.933Z,94.76
2022-09-03T21:58:50.170Z,94.91
2022-09-03T22:01:26.510Z,94.09
2022-09-03T22:03:54.371Z,93.49
2022-09-03T22:06:32.098Z,93.26
2022-09-03T22:09:08.245Z,93.99
2022-09-03T22:11:50.410Z,94.49
2022-09-03T22:14:18.187Z,95.12
2022-09-03T22:16:54.237Z,94.83
2022-09-03T22:19:23.605Z,94.84
2022-09-03T22:21:59.313Z,95.77
2022-09-03T22:24:35.366Z,96.79
2022-09-03T22:27:08.865Z,97.51
2022-09-03T22:29:53.319Z,97.52
2022-09-03T22:32:41.827Z,97.07
2022-09-03T22:35:14.725Z,96.28
2022-09-03T22:38:01.032Z,96.65
2022-09-03T22:41:15.103Z,96.54
2022-09-03T22:44:00.464Z,96.97
2022-09-03T22:46:33.626Z,97.12
2022-09-03T22:49:22.207Z,96.60
2022-09-03T22:51:55.248Z,96.37
2022-09-03T22:54:47.962Z,96.30
2022-09-03T22:57:21.941Z,96.11
2022-09-03T23:00:03.167Z,95.88
2022-09-03T23:02:32.081Z,96.23
2022-09-03T23:05:08.215Z,96.41
2022-09-03T23:07:54.202Z,96.43
2022-09-03T23:10:30.014Z,96.07
2022-09-03T23:13:14.965Z,96.38
2022-09-03T23:16:00.757Z,97.23
2022-09-03T23:18:36.449Z,97.51
2022-09-03T23:21:11.998Z,97.77
2022-09-03T23:23:42.860Z,97.45
2022-09-03T23:26:13.871Z,97.29
2022-09-03T23:28:57.339Z,97.39
2022-09-03T23:31:26.454Z,97.46
2022-09-03T23:33:55.227Z,97.58
2022-09-03T23:36:55.075Z,97.81
2022-09-03T23:39:23.371Z,97.82
2022-09-03T23:42:15.267Z,97.90
2022-09-03T23:45:15.606Z,98.22
2022-09-03T23:47:47.860Z,98.08
2022-09-03T23:50:37.761Z,97.95
2022-09-03T23:53:20.019Z,97.82
2022-09-03T23:56:02.354Z,97.71
2022-09-03T23:58:30.331Z,98.10
